sensor_id;sensor_type;location;lat;lon;timestamp;P1;durP1;ratioP1;P2;durP2;ratioP2
32216;SDS011;67098;51.140;4.088;2023-03-18T00:02:06;17.38;;;6.32;;
32216;SDS011;67098;51.140;4.088;2023-03-18T00:04:32;16.35;;;6.72;;
32216;SDS011;67098;51.140;4.088;2023-03-18T00:06:58;15.98;;;6.82;;
32216;SDS011;67098;51.140;4.088;2023-03-18T00:09:23;19.45;;;6.82;;
32216;SDS011;67098;51.140;4.088;2023-03-18T00:11:49;16.35;;;7.53;;
32216;SDS011;67098;51.140;4.088;2023-03-18T00:14:16;15.98;;;7.03;;
32216;SDS011;67098;51.140;4.088;2023-03-18T00:16:43;13.95;;;6.00;;
32216;SDS011;67098;51.140;4.088;2023-03-18T00:19:09;17.33;;;6.75;;
32216;SDS011;67098;51.140;4.088;2023-03-18T00:21:35;17.52;;;7.32;;
32216;SDS011;67098;51.140;4.088;2023-03-18T00:24:01;13.95;;;6.10;;
32216;SDS011;67098;51.140;4.088;2023-03-18T00:26:27;13.45;;;5.80;;
32216;SDS011;67098;51.140;4.088;2023-03-18T00:28:56;20.33;;;6.35;;
32216;SDS011;67098;51.140;4.088;2023-03-18T00:31:24;11.63;;;5.80;;
32216;SDS011;67098;51.140;4.088;2023-03-18T00:33:50;13.73;;;5.68;;
32216;SDS011;67098;51.140;4.088;2023-03-18T00:36:16;17.55;;;6.30;;
32216;SDS011;67098;51.140;4.088;2023-03-18T00:38:44;14.50;;;5.80;;
32216;SDS011;67098;51.140;4.088;2023-03-18T00:41:15;14.98;;;5.93;;
32216;SDS011;67098;51.140;4.088;2023-03-18T00:43:41;21.17;;;5.95;;
32216;SDS011;67098;51.140;4.088;2023-03-18T00:46:17;13.23;;;5.55;;
32216;SDS011;67098;51.140;4.088;2023-03-18T00:48:51;14.82;;;5.68;;
32216;SDS011;67098;51.140;4.088;2023-03-18T00:51:19;11.05;;;4.57;;
32216;SDS011;67098;51.140;4.088;2023-03-18T00:53:48;13.30;;;4.97;;
32216;SDS011;67098;51.140;4.088;2023-03-18T00:56:16;14.75;;;5.28;;
32216;SDS011;67098;51.140;4.088;2023-03-18T00:58:43;12.35;;;4.97;;
32216;SDS011;67098;51.140;4.088;2023-03-18T01:01:11;12.23;;;5.22;;
32216;SDS011;67098;51.140;4.088;2023-03-18T01:03:38;13.95;;;4.60;;
32216;SDS011;67098;51.140;4.088;2023-03-18T01:06:06;14.60;;;4.97;;
32216;SDS011;67098;51.140;4.088;2023-03-18T01:08:33;13.45;;;4.97;;
32216;SDS011;67098;51.140;4.088;2023-03-18T01:10:59;13.40;;;5.05;;
32216;SDS011;67098;51.140;4.088;2023-03-18T01:13:25;11.23;;;4.80;;
32216;SDS011;67098;51.140;4.088;2023-03-18T01:15:51;13.13;;;4.93;;
32216;SDS011;67098;51.140;4.088;2023-03-18T01:18:18;15.07;;;4.85;;
32216;SDS011;67098;51.140;4.088;2023-03-18T01:20:44;12.52;;;5.05;;
32216;SDS011;67098;51.140;4.088;2023-03-18T01:23:11;12.10;;;4.88;;
32216;SDS011;67098;51.140;4.088;2023-03-18T01:25:37;10.80;;;5.07;;
32216;SDS011;67098;51.140;4.088;2023-03-18T01:28:04;11.98;;;4.72;;
32216;SDS011;67098;51.140;4.088;2023-03-18T01:30:30;12.80;;;5.15;;
32216;SDS011;67098;51.140;4.088;2023-03-18T01:32:59;12.73;;;5.32;;
32216;SDS011;67098;51.140;4.088;2023-03-18T01:35:25;10.98;;;4.72;;
32216;SDS011;67098;51.140;4.088;2023-03-18T01:37:52;11.23;;;6.15;;
32216;SDS011;67098;51.140;4.088;2023-03-18T01:40:18;13.07;;;5.75;;
32216;SDS011;67098;51.140;4.088;2023-03-18T01:42:52;15.05;;;6.00;;
32216;SDS011;67098;51.140;4.088;2023-03-18T01:45:26;14.60;;;6.15;;
32216;SDS011;67098;51.140;4.088;2023-03-18T01:47:54;19.75;;;5.25;;
32216;SDS011;67098;51.140;4.088;2023-03-18T01:50:22;9.90;;;5.18;;
32216;SDS011;67098;51.140;4.088;2023-03-18T01:52:53;13.55;;;5.53;;
32216;SDS011;67098;51.140;4.088;2023-03-18T01:55:25;9.40;;;5.72;;
32216;SDS011;67098;51.140;4.088;2023-03-18T01:57:54;12.02;;;5.43;;
32216;SDS011;67098;51.140;4.088;2023-03-18T02:00:20;14.65;;;5.97;;
32216;SDS011;67098;51.140;4.088;2023-03-18T02:02:48;10.23;;;5.72;;
32216;SDS011;67098;51.140;4.088;2023-03-18T02:05:18;11.18;;;5.80;;
32216;SDS011;67098;51.140;4.088;2023-03-18T02:07:49;15.65;;;6.47;;
32216;SDS011;67098;51.140;4.088;2023-03-18T02:10:23;12.32;;;6.20;;
32216;SDS011;67098;51.140;4.088;2023-03-18T02:12:52;11.45;;;6.75;;
32216;SDS011;67098;51.140;4.088;2023-03-18T02:15:27;16.02;;;7.93;;
32216;SDS011;67098;51.140;4.088;2023-03-18T02:17:58;15.40;;;7.65;;
32216;SDS011;67098;51.140;4.088;2023-03-18T02:20:38;15.48;;;7.95;;
32216;SDS011;67098;51.140;4.088;2023-03-18T02:28:54;14.02;;;8.00;;
32216;SDS011;67098;51.140;4.088;2023-03-18T02:31:23;13.63;;;7.97;;
32216;SDS011;67098;51.140;4.088;2023-03-18T02:33:50;13.80;;;9.10;;
32216;SDS011;67098;51.140;4.088;2023-03-18T02:36:20;15.60;;;9.00;;
32216;SDS011;67098;51.140;4.088;2023-03-18T02:38:48;17.33;;;9.57;;
32216;SDS011;67098;51.140;4.088;2023-03-18T02:41:18;16.52;;;8.93;;
32216;SDS011;67098;51.140;4.088;2023-03-18T02:43:47;18.45;;;9.63;;
32216;SDS011;67098;51.140;4.088;2023-03-18T02:48:54;15.65;;;9.00;;
32216;SDS011;67098;51.140;4.088;2023-03-18T02:51:22;18.30;;;8.07;;
32216;SDS011;67098;51.140;4.088;2023-03-18T02:53:49;16.60;;;8.93;;
32216;SDS011;67098;51.140;4.088;2023-03-18T02:56:15;18.73;;;8.60;;
32216;SDS011;67098;51.140;4.088;2023-03-18T02:58:41;14.43;;;8.88;;
32216;SDS011;67098;51.140;4.088;2023-03-18T03:01:07;21.30;;;9.25;;
32216;SDS011;67098;51.140;4.088;2023-03-18T03:03:34;14.85;;;8.13;;
32216;SDS011;67098;51.140;4.088;2023-03-18T03:06:00;20.30;;;8.95;;
32216;SDS011;67098;51.140;4.088;2023-03-18T03:08:26;18.80;;;8.55;;
32216;SDS011;67098;51.140;4.088;2023-03-18T03:10:53;15.25;;;8.43;;
32216;SDS011;67098;51.140;4.088;2023-03-18T03:13:19;19.58;;;8.77;;
32216;SDS011;67098;51.140;4.088;2023-03-18T03:15:46;17.50;;;9.07;;
32216;SDS011;67098;51.140;4.088;2023-03-18T03:18:13;19.92;;;9.52;;
32216;SDS011;67098;51.140;4.088;2023-03-18T03:20:39;19.52;;;9.23;;
32216;SDS011;67098;51.140;4.088;2023-03-18T03:23:06;20.17;;;10.02;;
32216;SDS011;67098;51.140;4.088;2023-03-18T03:25:34;19.02;;;10.32;;
32216;SDS011;67098;51.140;4.088;2023-03-18T03:28:00;29.85;;;10.60;;
32216;SDS011;67098;51.140;4.088;2023-03-18T03:30:27;20.65;;;10.80;;
32216;SDS011;67098;51.140;4.088;2023-03-18T03:32:52;23.95;;;11.30;;
32216;SDS011;67098;51.140;4.088;2023-03-18T03:35:18;21.83;;;10.93;;
32216;SDS011;67098;51.140;4.088;2023-03-18T03:37:44;23.95;;;10.75;;
32216;SDS011;67098;51.140;4.088;2023-03-18T03:40:12;19.17;;;10.75;;
32216;SDS011;67098;51.140;4.088;2023-03-18T03:42:42;24.77;;;11.82;;
32216;SDS011;67098;51.140;4.088;2023-03-18T03:45:09;23.13;;;11.85;;
32216;SDS011;67098;51.140;4.088;2023-03-18T03:47:36;26.90;;;12.35;;
32216;SDS011;67098;51.140;4.088;2023-03-18T03:50:02;22.90;;;11.23;;
32216;SDS011;67098;51.140;4.088;2023-03-18T03:52:30;22.63;;;12.10;;
32216;SDS011;67098;51.140;4.088;2023-03-18T03:54:56;26.92;;;12.05;;
32216;SDS011;67098;51.140;4.088;2023-03-18T03:57:22;22.50;;;12.38;;
32216;SDS011;67098;51.140;4.088;2023-03-18T03:59:49;22.73;;;13.32;;
32216;SDS011;67098;51.140;4.088;2023-03-18T04:02:15;22.92;;;12.60;;
32216;SDS011;67098;51.140;4.088;2023-03-18T04:04:41;28.15;;;14.00;;
32216;SDS011;67098;51.140;4.088;2023-03-18T04:07:09;23.92;;;13.43;;
32216;SDS011;67098;51.140;4.088;2023-03-18T04:09:35;25.52;;;12.70;;
32216;SDS011;67098;51.140;4.088;2023-03-18T04:12:01;25.02;;;13.27;;
32216;SDS011;67098;51.140;4.088;2023-03-18T04:14:28;24.73;;;13.20;;
32216;SDS011;67098;51.140;4.088;2023-03-18T04:16:54;24.10;;;13.32;;
32216;SDS011;67098;51.140;4.088;2023-03-18T04:19:22;24.23;;;12.13;;
32216;SDS011;67098;51.140;4.088;2023-03-18T04:21:48;24.38;;;12.27;;
32216;SDS011;67098;51.140;4.088;2023-03-18T04:24:14;18.08;;;11.45;;
32216;SDS011;67098;51.140;4.088;2023-03-18T04:26:39;21.17;;;11.98;;
32216;SDS011;67098;51.140;4.088;2023-03-18T04:29:05;21.23;;;12.10;;
32216;SDS011;67098;51.140;4.088;2023-03-18T04:31:31;23.27;;;12.65;;
32216;SDS011;67098;51.140;4.088;2023-03-18T04:33:57;24.33;;;12.48;;
32216;SDS011;67098;51.140;4.088;2023-03-18T04:36:23;26.35;;;11.65;;
32216;SDS011;67098;51.140;4.088;2023-03-18T04:38:49;22.73;;;12.50;;
32216;SDS011;67098;51.140;4.088;2023-03-18T04:41:15;22.10;;;11.93;;
32216;SDS011;67098;51.140;4.088;2023-03-18T04:43:41;22.20;;;11.63;;
32216;SDS011;67098;51.140;4.088;2023-03-18T04:46:09;21.52;;;11.75;;
32216;SDS011;67098;51.140;4.088;2023-03-18T04:48:36;20.42;;;11.48;;
32216;SDS011;67098;51.140;4.088;2023-03-18T04:51:02;19.00;;;11.73;;
32216;SDS011;67098;51.140;4.088;2023-03-18T04:53:28;21.70;;;12.70;;
32216;SDS011;67098;51.140;4.088;2023-03-18T04:55:54;21.90;;;11.60;;
32216;SDS011;67098;51.140;4.088;2023-03-18T04:58:20;24.98;;;13.20;;
32216;SDS011;67098;51.140;4.088;2023-03-18T05:00:47;23.13;;;11.40;;
32216;SDS011;67098;51.140;4.088;2023-03-18T05:03:13;20.38;;;12.15;;
32216;SDS011;67098;51.140;4.088;2023-03-18T05:05:38;20.70;;;11.52;;
32216;SDS011;67098;51.140;4.088;2023-03-18T05:08:04;24.10;;;11.70;;
32216;SDS011;67098;51.140;4.088;2023-03-18T05:10:31;19.13;;;10.98;;
32216;SDS011;67098;51.140;4.088;2023-03-18T05:12:57;19.30;;;10.63;;
32216;SDS011;67098;51.140;4.088;2023-03-18T05:15:23;26.58;;;12.48;;
32216;SDS011;67098;51.140;4.088;2023-03-18T05:17:49;24.90;;;13.73;;
32216;SDS011;67098;51.140;4.088;2023-03-18T05:20:14;24.65;;;12.52;;
32216;SDS011;67098;51.140;4.088;2023-03-18T05:22:40;25.17;;;12.40;;
32216;SDS011;67098;51.140;4.088;2023-03-18T05:25:06;21.73;;;13.98;;
32216;SDS011;67098;51.140;4.088;2023-03-18T05:27:32;21.35;;;12.70;;
32216;SDS011;67098;51.140;4.088;2023-03-18T05:29:58;24.13;;;13.48;;
32216;SDS011;67098;51.140;4.088;2023-03-18T05:32:24;19.92;;;12.93;;
32216;SDS011;67098;51.140;4.088;2023-03-18T05:34:50;27.83;;;13.25;;
32216;SDS011;67098;51.140;4.088;2023-03-18T05:37:16;24.80;;;13.98;;
32216;SDS011;67098;51.140;4.088;2023-03-18T05:39:42;21.70;;;12.75;;
32216;SDS011;67098;51.140;4.088;2023-03-18T05:42:09;22.55;;;13.60;;
32216;SDS011;67098;51.140;4.088;2023-03-18T05:44:35;22.02;;;13.43;;
32216;SDS011;67098;51.140;4.088;2023-03-18T05:47:01;23.10;;;13.05;;
32216;SDS011;67098;51.140;4.088;2023-03-18T05:49:26;26.02;;;14.25;;
32216;SDS011;67098;51.140;4.088;2023-03-18T05:51:52;22.85;;;13.80;;
32216;SDS011;67098;51.140;4.088;2023-03-18T05:54:18;22.95;;;13.82;;
32216;SDS011;67098;51.140;4.088;2023-03-18T05:56:44;26.08;;;13.65;;
32216;SDS011;67098;51.140;4.088;2023-03-18T05:59:10;28.95;;;14.98;;
32216;SDS011;67098;51.140;4.088;2023-03-18T06:01:38;25.33;;;14.88;;
32216;SDS011;67098;51.140;4.088;2023-03-18T06:04:04;26.73;;;14.68;;
32216;SDS011;67098;51.140;4.088;2023-03-18T06:06:33;28.52;;;14.98;;
32216;SDS011;67098;51.140;4.088;2023-03-18T06:09:01;27.27;;;14.48;;
32216;SDS011;67098;51.140;4.088;2023-03-18T06:11:27;26.35;;;15.90;;
32216;SDS011;67098;51.140;4.088;2023-03-18T06:13:53;27.63;;;15.60;;
32216;SDS011;67098;51.140;4.088;2023-03-18T06:16:19;26.63;;;15.38;;
32216;SDS011;67098;51.140;4.088;2023-03-18T06:18:46;29.20;;;15.85;;
32216;SDS011;67098;51.140;4.088;2023-03-18T06:21:11;25.95;;;15.85;;
32216;SDS011;67098;51.140;4.088;2023-03-18T06:23:37;25.60;;;15.73;;
32216;SDS011;67098;51.140;4.088;2023-03-18T06:26:03;28.88;;;16.50;;
32216;SDS011;67098;51.140;4.088;2023-03-18T06:28:29;27.73;;;16.13;;
32216;SDS011;67098;51.140;4.088;2023-03-18T06:30:55;30.55;;;17.20;;
32216;SDS011;67098;51.140;4.088;2023-03-18T06:33:22;30.27;;;16.67;;
32216;SDS011;67098;51.140;4.088;2023-03-18T06:35:50;28.65;;;16.40;;
32216;SDS011;67098;51.140;4.088;2023-03-18T06:38:17;33.08;;;16.80;;
32216;SDS011;67098;51.140;4.088;2023-03-18T06:40:43;27.52;;;16.33;;
32216;SDS011;67098;51.140;4.088;2023-03-18T06:43:09;33.30;;;17.33;;
32216;SDS011;67098;51.140;4.088;2023-03-18T06:45:37;32.88;;;16.63;;
32216;SDS011;67098;51.140;4.088;2023-03-18T06:48:03;27.67;;;16.77;;
32216;SDS011;67098;51.140;4.088;2023-03-18T06:50:29;28.35;;;16.30;;
32216;SDS011;67098;51.140;4.088;2023-03-18T06:52:56;29.60;;;16.55;;
32216;SDS011;67098;51.140;4.088;2023-03-18T06:55:23;28.67;;;16.17;;
32216;SDS011;67098;51.140;4.088;2023-03-18T06:57:49;24.65;;;14.70;;
32216;SDS011;67098;51.140;4.088;2023-03-18T07:00:15;26.75;;;15.30;;
32216;SDS011;67098;51.140;4.088;2023-03-18T07:02:41;24.60;;;13.98;;
32216;SDS011;67098;51.140;4.088;2023-03-18T07:05:07;24.67;;;14.27;;
32216;SDS011;67098;51.140;4.088;2023-03-18T07:07:33;25.75;;;15.27;;
32216;SDS011;67098;51.140;4.088;2023-03-18T07:10:02;24.90;;;14.43;;
32216;SDS011;67098;51.140;4.088;2023-03-18T07:12:32;29.75;;;15.40;;
32216;SDS011;67098;51.140;4.088;2023-03-18T07:14:58;27.27;;;15.30;;
32216;SDS011;67098;51.140;4.088;2023-03-18T07:17:23;25.20;;;15.43;;
32216;SDS011;67098;51.140;4.088;2023-03-18T07:19:49;26.55;;;16.05;;
32216;SDS011;67098;51.140;4.088;2023-03-18T07:22:15;25.75;;;15.20;;
32216;SDS011;67098;51.140;4.088;2023-03-18T07:24:42;27.75;;;15.65;;
32216;SDS011;67098;51.140;4.088;2023-03-18T07:27:08;27.90;;;16.42;;
32216;SDS011;67098;51.140;4.088;2023-03-18T07:29:34;25.23;;;15.05;;
32216;SDS011;67098;51.140;4.088;2023-03-18T07:32:00;26.08;;;15.65;;
32216;SDS011;67098;51.140;4.088;2023-03-18T07:34:26;26.77;;;14.90;;
32216;SDS011;67098;51.140;4.088;2023-03-18T07:36:52;26.88;;;15.95;;
32216;SDS011;67098;51.140;4.088;2023-03-18T07:39:18;23.60;;;15.25;;
32216;SDS011;67098;51.140;4.088;2023-03-18T07:41:44;25.55;;;15.00;;
32216;SDS011;67098;51.140;4.088;2023-03-18T07:44:10;23.58;;;15.05;;
32216;SDS011;67098;51.140;4.088;2023-03-18T07:46:36;27.02;;;15.95;;
32216;SDS011;67098;51.140;4.088;2023-03-18T07:49:01;27.65;;;15.82;;
32216;SDS011;67098;51.140;4.088;2023-03-18T07:51:27;28.05;;;15.77;;
32216;SDS011;67098;51.140;4.088;2023-03-18T07:53:53;27.73;;;15.95;;
32216;SDS011;67098;51.140;4.088;2023-03-18T07:56:19;25.77;;;15.48;;
32216;SDS011;67098;51.140;4.088;2023-03-18T07:58:45;30.50;;;16.58;;
32216;SDS011;67098;51.140;4.088;2023-03-18T08:01:11;27.42;;;16.42;;
32216;SDS011;67098;51.140;4.088;2023-03-18T08:03:40;31.75;;;15.15;;
32216;SDS011;67098;51.140;4.088;2023-03-18T08:06:05;24.20;;;15.43;;
32216;SDS011;67098;51.140;4.088;2023-03-18T08:08:32;26.83;;;15.45;;
32216;SDS011;67098;51.140;4.088;2023-03-18T08:10:58;28.10;;;15.15;;
32216;SDS011;67098;51.140;4.088;2023-03-18T08:13:24;27.35;;;15.30;;
32216;SDS011;67098;51.140;4.088;2023-03-18T08:15:51;25.52;;;14.48;;
32216;SDS011;67098;51.140;4.088;2023-03-18T08:18:17;26.67;;;14.10;;
32216;SDS011;67098;51.140;4.088;2023-03-18T08:20:43;24.98;;;14.40;;
32216;SDS011;67098;51.140;4.088;2023-03-18T08:23:10;22.90;;;13.73;;
32216;SDS011;67098;51.140;4.088;2023-03-18T08:25:35;18.75;;;12.63;;
32216;SDS011;67098;51.140;4.088;2023-03-18T08:28:02;23.73;;;12.38;;
32216;SDS011;67098;51.140;4.088;2023-03-18T08:30:31;21.75;;;11.85;;
32216;SDS011;67098;51.140;4.088;2023-03-18T08:32:56;17.85;;;10.80;;
32216;SDS011;67098;51.140;4.088;2023-03-18T08:35:22;17.17;;;11.00;;
32216;SDS011;67098;51.140;4.088;2023-03-18T08:37:48;19.65;;;10.77;;
32216;SDS011;67098;51.140;4.088;2023-03-18T08:40:15;19.65;;;10.57;;
32216;SDS011;67098;51.140;4.088;2023-03-18T08:42:41;18.98;;;10.10;;
32216;SDS011;67098;51.140;4.088;2023-03-18T08:45:07;16.48;;;9.05;;
32216;SDS011;67098;51.140;4.088;2023-03-18T08:47:34;19.70;;;10.70;;
32216;SDS011;67098;51.140;4.088;2023-03-18T08:49:59;20.45;;;12.05;;
32216;SDS011;67098;51.140;4.088;2023-03-18T08:52:25;29.98;;;14.50;;
32216;SDS011;67098;51.140;4.088;2023-03-18T08:54:51;25.17;;;13.07;;
32216;SDS011;67098;51.140;4.088;2023-03-18T08:57:16;18.30;;;10.90;;
32216;SDS011;67098;51.140;4.088;2023-03-18T08:59:42;17.60;;;9.82;;
32216;SDS011;67098;51.140;4.088;2023-03-18T09:02:11;18.17;;;8.48;;
32216;SDS011;67098;51.140;4.088;2023-03-18T09:04:40;14.60;;;8.35;;
32216;SDS011;67098;51.140;4.088;2023-03-18T09:07:07;15.85;;;8.23;;
32216;SDS011;67098;51.140;4.088;2023-03-18T09:09:32;15.02;;;8.00;;
32216;SDS011;67098;51.140;4.088;2023-03-18T09:11:58;12.70;;;7.22;;
32216;SDS011;67098;51.140;4.088;2023-03-18T09:14:25;13.82;;;7.13;;
32216;SDS011;67098;51.140;4.088;2023-03-18T09:16:51;14.35;;;6.78;;
32216;SDS011;67098;51.140;4.088;2023-03-18T09:19:18;12.98;;;6.43;;
32216;SDS011;67098;51.140;4.088;2023-03-18T09:21:44;9.70;;;5.72;;
32216;SDS011;67098;51.140;4.088;2023-03-18T09:24:10;10.07;;;6.47;;
32216;SDS011;67098;51.140;4.088;2023-03-18T09:26:36;11.27;;;6.43;;
32216;SDS011;67098;51.140;4.088;2023-03-18T09:29:03;11.10;;;6.80;;
32216;SDS011;67098;51.140;4.088;2023-03-18T09:31:29;10.05;;;6.22;;
32216;SDS011;67098;51.140;4.088;2023-03-18T09:33:55;14.27;;;7.00;;
32216;SDS011;67098;51.140;4.088;2023-03-18T09:36:21;10.18;;;6.57;;
32216;SDS011;67098;51.140;4.088;2023-03-18T09:38:47;12.85;;;6.90;;
32216;SDS011;67098;51.140;4.088;2023-03-18T09:41:17;14.07;;;6.88;;
32216;SDS011;67098;51.140;4.088;2023-03-18T09:44:28;14.00;;;7.53;;
32216;SDS011;67098;51.140;4.088;2023-03-18T09:53:00;11.35;;;7.10;;
32216;SDS011;67098;51.140;4.088;2023-03-18T09:55:43;14.35;;;7.65;;
32216;SDS011;67098;51.140;4.088;2023-03-18T09:58:29;11.50;;;7.05;;
32216;SDS011;67098;51.140;4.088;2023-03-18T10:01:10;11.07;;;6.97;;
32216;SDS011;67098;51.140;4.088;2023-03-18T10:03:47;18.23;;;7.13;;
32216;SDS011;67098;51.140;4.088;2023-03-18T10:06:37;12.90;;;6.82;;
32216;SDS011;67098;51.140;4.088;2023-03-18T10:11:49;13.18;;;7.25;;
32216;SDS011;67098;51.140;4.088;2023-03-18T10:14:37;12.75;;;7.60;;
32216;SDS011;67098;51.140;4.088;2023-03-18T10:17:19;11.70;;;6.82;;
32216;SDS011;67098;51.140;4.088;2023-03-18T10:19:53;14.38;;;7.72;;
32216;SDS011;67098;51.140;4.088;2023-03-18T10:25:22;12.48;;;7.20;;
32216;SDS011;67098;51.140;4.088;2023-03-18T10:34:01;16.35;;;7.65;;
32216;SDS011;67098;51.140;4.088;2023-03-18T10:36:29;15.68;;;7.43;;
32216;SDS011;67098;51.140;4.088;2023-03-18T10:39:04;13.07;;;6.90;;
32216;SDS011;67098;51.140;4.088;2023-03-18T10:41:36;11.15;;;6.70;;
32216;SDS011;67098;51.140;4.088;2023-03-18T10:44:05;10.40;;;6.82;;
32216;SDS011;67098;51.140;4.088;2023-03-18T10:46:58;13.23;;;7.00;;
32216;SDS011;67098;51.140;4.088;2023-03-18T10:50:22;11.25;;;6.20;;
32216;SDS011;67098;51.140;4.088;2023-03-18T10:55:28;10.13;;;5.72;;
32216;SDS011;67098;51.140;4.088;2023-03-18T10:58:00;8.77;;;5.60;;
32216;SDS011;67098;51.140;4.088;2023-03-18T11:00:38;10.38;;;4.93;;
32216;SDS011;67098;51.140;4.088;2023-03-18T11:03:04;11.30;;;5.07;;
32216;SDS011;67098;51.140;4.088;2023-03-18T11:05:31;6.38;;;4.25;;
32216;SDS011;67098;51.140;4.088;2023-03-18T11:08:05;12.63;;;4.72;;
32216;SDS011;67098;51.140;4.088;2023-03-18T11:10:36;8.52;;;5.07;;
32216;SDS011;67098;51.140;4.088;2023-03-18T11:13:12;6.75;;;4.00;;
32216;SDS011;67098;51.140;4.088;2023-03-18T11:15:49;6.60;;;3.80;;
32216;SDS011;67098;51.140;4.088;2023-03-18T11:18:18;7.25;;;3.85;;
32216;SDS011;67098;51.140;4.088;2023-03-18T11:20:52;5.10;;;3.70;;
32216;SDS011;67098;51.140;4.088;2023-03-18T11:23:36;10.45;;;3.90;;
32216;SDS011;67098;51.140;4.088;2023-03-18T11:26:42;8.52;;;3.42;;
32216;SDS011;67098;51.140;4.088;2023-03-18T11:29:16;6.10;;;3.23;;
32216;SDS011;67098;51.140;4.088;2023-03-18T11:31:49;6.90;;;3.50;;
32216;SDS011;67098;51.140;4.088;2023-03-18T11:34:18;6.45;;;3.47;;
32216;SDS011;67098;51.140;4.088;2023-03-18T11:36:55;7.28;;;2.75;;
32216;SDS011;67098;51.140;4.088;2023-03-18T11:39:26;4.18;;;2.80;;
32216;SDS011;67098;51.140;4.088;2023-03-18T11:41:55;6.50;;;2.90;;
32216;SDS011;67098;51.140;4.088;2023-03-18T11:44:25;6.82;;;2.50;;
32216;SDS011;67098;51.140;4.088;2023-03-18T11:47:07;4.18;;;2.30;;
32216;SDS011;67098;51.140;4.088;2023-03-18T11:49:42;4.60;;;2.72;;
32216;SDS011;67098;51.140;4.088;2023-03-18T11:52:30;5.75;;;2.63;;
32216;SDS011;67098;51.140;4.088;2023-03-18T11:55:02;4.65;;;2.53;;
32216;SDS011;67098;51.140;4.088;2023-03-18T11:57:41;4.35;;;2.40;;
32216;SDS011;67098;51.140;4.088;2023-03-18T12:00:36;3.55;;;2.30;;
32216;SDS011;67098;51.140;4.088;2023-03-18T12:06:23;4.47;;;2.70;;
32216;SDS011;67098;51.140;4.088;2023-03-18T12:12:00;5.75;;;2.40;;
32216;SDS011;67098;51.140;4.088;2023-03-18T12:14:50;3.72;;;2.00;;
32216;SDS011;67098;51.140;4.088;2023-03-18T12:23:12;3.92;;;1.40;;
32216;SDS011;67098;51.140;4.088;2023-03-18T12:31:17;2.88;;;2.15;;
32216;SDS011;67098;51.140;4.088;2023-03-18T12:33:50;6.65;;;2.53;;
32216;SDS011;67098;51.140;4.088;2023-03-18T12:47:10;6.03;;;1.55;;
32216;SDS011;67098;51.140;4.088;2023-03-18T12:49:53;6.28;;;1.90;;
32216;SDS011;67098;51.140;4.088;2023-03-18T12:52:34;4.93;;;1.70;;
32216;SDS011;67098;51.140;4.088;2023-03-18T13:03:08;2.90;;;1.60;;
32216;SDS011;67098;51.140;4.088;2023-03-18T13:13:33;4.72;;;1.67;;
32216;SDS011;67098;51.140;4.088;2023-03-18T13:16:02;3.55;;;1.50;;
32216;SDS011;67098;51.140;4.088;2023-03-18T13:18:43;3.33;;;1.77;;
32216;SDS011;67098;51.140;4.088;2023-03-18T13:21:13;4.55;;;1.70;;
32216;SDS011;67098;51.140;4.088;2023-03-18T13:31:35;7.35;;;1.55;;
32216;SDS011;67098;51.140;4.088;2023-03-18T13:37:39;3.95;;;2.00;;
32216;SDS011;67098;51.140;4.088;2023-03-18T13:40:28;3.28;;;1.77;;
32216;SDS011;67098;51.140;4.088;2023-03-18T13:43:17;4.43;;;1.92;;
32216;SDS011;67098;51.140;4.088;2023-03-18T13:45:45;8.25;;;1.90;;
32216;SDS011;67098;51.140;4.088;2023-03-18T13:48:20;5.30;;;1.70;;
32216;SDS011;67098;51.140;4.088;2023-03-18T13:50:58;3.08;;;1.50;;
32216;SDS011;67098;51.140;4.088;2023-03-18T13:53:39;3.05;;;1.40;;
32216;SDS011;67098;51.140;4.088;2023-03-18T13:58:52;1.95;;;1.23;;
32216;SDS011;67098;51.140;4.088;2023-03-18T14:11:53;7.00;;;2.15;;
32216;SDS011;67098;51.140;4.088;2023-03-18T14:14:38;3.67;;;1.60;;
32216;SDS011;67098;51.140;4.088;2023-03-18T14:22:46;6.50;;;1.45;;
32216;SDS011;67098;51.140;4.088;2023-03-18T14:33:03;4.63;;;1.67;;
32216;SDS011;67098;51.140;4.088;2023-03-18T14:38:16;4.68;;;1.80;;
32216;SDS011;67098;51.140;4.088;2023-03-18T14:40:44;4.07;;;1.38;;
32216;SDS011;67098;51.140;4.088;2023-03-18T14:43:24;5.50;;;1.83;;
32216;SDS011;67098;51.140;4.088;2023-03-18T14:45:57;4.15;;;1.55;;
32216;SDS011;67098;51.140;4.088;2023-03-18T14:48:28;10.00;;;1.95;;
32216;SDS011;67098;51.140;4.088;2023-03-18T14:50:59;4.30;;;1.70;;
32216;SDS011;67098;51.140;4.088;2023-03-18T14:53:41;5.32;;;1.50;;
32216;SDS011;67098;51.140;4.088;2023-03-18T14:56:20;8.20;;;2.17;;
32216;SDS011;67098;51.140;4.088;2023-03-18T14:58:50;11.43;;;2.00;;
32216;SDS011;67098;51.140;4.088;2023-03-18T15:01:17;5.18;;;2.30;;
32216;SDS011;67098;51.140;4.088;2023-03-18T15:04:09;4.60;;;1.85;;
32216;SDS011;67098;51.140;4.088;2023-03-18T15:06:42;6.60;;;2.00;;
32216;SDS011;67098;51.140;4.088;2023-03-18T15:09:09;5.65;;;1.92;;
32216;SDS011;67098;51.140;4.088;2023-03-18T15:11:42;4.85;;;1.65;;
32216;SDS011;67098;51.140;4.088;2023-03-18T15:14:11;4.00;;;1.85;;
32216;SDS011;67098;51.140;4.088;2023-03-18T15:16:53;6.60;;;1.60;;
32216;SDS011;67098;51.140;4.088;2023-03-18T15:19:20;9.32;;;2.05;;
32216;SDS011;67098;51.140;4.088;2023-03-18T15:21:47;8.63;;;2.33;;
32216;SDS011;67098;51.140;4.088;2023-03-18T15:24:21;7.68;;;2.08;;
32216;SDS011;67098;51.140;4.088;2023-03-18T15:26:56;7.57;;;2.20;;
32216;SDS011;67098;51.140;4.088;2023-03-18T15:29:34;7.32;;;2.17;;
32216;SDS011;67098;51.140;4.088;2023-03-18T15:32:06;7.63;;;2.22;;
32216;SDS011;67098;51.140;4.088;2023-03-18T15:37:39;7.05;;;2.38;;
32216;SDS011;67098;51.140;4.088;2023-03-18T15:40:16;6.90;;;2.63;;
32216;SDS011;67098;51.140;4.088;2023-03-18T15:45:34;11.07;;;2.97;;
32216;SDS011;67098;51.140;4.088;2023-03-18T15:48:19;12.02;;;3.10;;
32216;SDS011;67098;51.140;4.088;2023-03-18T15:50:52;5.50;;;2.97;;
32216;SDS011;67098;51.140;4.088;2023-03-18T15:53:24;9.48;;;3.53;;
32216;SDS011;67098;51.140;4.088;2023-03-18T15:55:53;13.18;;;3.33;;
32216;SDS011;67098;51.140;4.088;2023-03-18T15:58:24;7.45;;;3.55;;
32216;SDS011;67098;51.140;4.088;2023-03-18T16:01:00;7.28;;;3.28;;
32216;SDS011;67098;51.140;4.088;2023-03-18T16:03:26;9.43;;;3.80;;
32216;SDS011;67098;51.140;4.088;2023-03-18T16:05:55;9.32;;;3.63;;
32216;SDS011;67098;51.140;4.088;2023-03-18T16:08:22;9.25;;;3.17;;
32216;SDS011;67098;51.140;4.088;2023-03-18T16:10:49;11.40;;;3.55;;
32216;SDS011;67098;51.140;4.088;2023-03-18T16:13:21;7.50;;;3.17;;
32216;SDS011;67098;51.140;4.088;2023-03-18T16:15:49;5.80;;;2.90;;
32216;SDS011;67098;51.140;4.088;2023-03-18T16:18:16;6.30;;;2.53;;
32216;SDS011;67098;51.140;4.088;2023-03-18T16:20:43;6.97;;;2.85;;
32216;SDS011;67098;51.140;4.088;2023-03-18T16:23:10;14.65;;;3.03;;
32216;SDS011;67098;51.140;4.088;2023-03-18T16:25:39;7.82;;;2.70;;
32216;SDS011;67098;51.140;4.088;2023-03-18T16:28:14;8.15;;;3.53;;
32216;SDS011;67098;51.140;4.088;2023-03-18T16:30:48;5.97;;;3.00;;
32216;SDS011;67098;51.140;4.088;2023-03-18T16:33:16;6.38;;;2.83;;
32216;SDS011;67098;51.140;4.088;2023-03-18T16:35:42;8.57;;;2.60;;
32216;SDS011;67098;51.140;4.088;2023-03-18T16:38:13;6.38;;;2.13;;
32216;SDS011;67098;51.140;4.088;2023-03-18T16:40:41;8.07;;;2.15;;
32216;SDS011;67098;51.140;4.088;2023-03-18T16:43:12;5.90;;;2.30;;
32216;SDS011;67098;51.140;4.088;2023-03-18T16:45:41;7.28;;;2.05;;
32216;SDS011;67098;51.140;4.088;2023-03-18T16:48:08;7.95;;;2.33;;